Kezdőlap
METAR-TAF:

METAR-TAF

Repülőterek :

Waseca Municipal Airport

Waseca, Minnesota, Amerikai Egyesült Államok

földrajzi szélesség: 44-04-24N, földrajzi hosszúság: 093-33-11W, magasság: 343 m

Jelenlegi meteorológiai megfigyelések

A jelentés 11 perccel ezelõtt készült, 15:35 UTC
Északnyugati szél 11 kt széllökések: 19 kt
Hőmérséklet 10°C
Páratartalom 71%
Légköri nyomás 1022 hPa
Látótávolság: 16.1 km
Szórványos felhőzet 1900 lábon
Szórványos felhőzet 2900 lábon
Borult 3900 lábon

METAR: KACQ 011535Z AUTO 32011G19KT 10SM SCT019 SCT029 OVC039 10/05 A3017 RMK AO2

Idő: 10:46 (15:46 UTC)


TAF: hiányzik

Meteorológiai megfigyelések és előrejelzések több, mint 4000 repülőtéren (METAR és TAF jelentéseket).

A térképen piros és sárga pontok jelzik az elérhető meteorológiai állomásokat.

Mozgassa az egeret a pont fölött, hogy megjelenjen az állomás neve.

Azután kattintson az időjárási megfigyelések és előrejelzések megtekintéséhez.

A térkép megváltoztatása: kattintson a fekete keresztel jelölt zöld gombra ráközelítéshez, a vonallal jelölt zöld gombra távolításhoz, vagy a zöld nyilakra a szomszédos térképek eléréséhez.


METAR-TAF: